This is the latest recevied weather packets stored in our database for station/object WBKK. If no packets are shown the sender has not sent any weather packets the latest 10 day(s).
| Time | Temp. | Humidity | Pressure | Rain* | Wind** | Luminosity | Snow |
|---|---|---|---|---|---|---|---|
| 1777500714 | 25° C | 94% | 1008 hPa | - | - | - | - |
| 1777497115 | 25° C | 94% | 1007 hPa | - | - | - | - |
| 1777489916 | 25.56° C | 88% | 1008 hPa | - | - | - | - |
| 1777482714 | 25.56° C | 94% | 1009 hPa | - | - | - | - |
| 1777479120 | 26.67° C | 88% | 1009 hPa | - | - | - | - |
| 1777471914 | 27.78° C | 88% | 1008 hPa | - | - | - | - |
| 1777468314 | 27.78° C | 88% | 1008 hPa | - | - | - | - |
| 1777464720 | 28.89° C | 83% | 1007 hPa | - | - | - | - |
| 1777461114 | 28.89° C | 83% | 1007 hPa | - | - | - | - |
| 1777457543 | 30° C | 79% | 1006 hPa | - | - | - | - |
| 1777455676 | 30° C | 84% | 1006 hPa | - | - | - | - |
| 1777453913 | 30° C | 79% | 1006 hPa | - | - | - | - |
| 1777452048 | 30.56° C | 74% | 1006 hPa | - | - | - | - |
| 1777450319 | 30.56° C | 74% | 1006 hPa | - | - | - | - |
| 1777448450 | 30° C | 79% | 1006 hPa | - | - | - | - |
| 1777446713 | 30° C | 84% | 1006 hPa | - | - | - | - |
| 1777444846 | 30.56° C | 74% | 1006 hPa | - | - | - | - |
| 1777444239 | 30.56° C | 79% | 1006 hPa | - | - | - | - |
| 1777443145 | 31.67° C | 74% | 1007 hPa | - | - | - | - |
| 1777441273 | 31.67° C | 74% | 1007 hPa | - | - | - | - |
| 1777439513 | 30.56° C | 79% | 1007 hPa | - | - | - | - |
| 1777435919 | 30.56° C | 79% | 1008 hPa | - | - | - | - |
| 1777432313 | 30.56° C | 74% | 1009 hPa | - | - | - | - |
| 1777407118 | 23.89° C | 94% | 1007 hPa | - | - | - | - |
| 1777403515 | 25° C | 88% | 1007 hPa | - | - | - | - |
* Rain since midnight (hover to see other rain measurements)
** Current wind speed in m/s (hover to see current wind gust speed)